Archival Weather

Chicago O'Hare International

Chicago, Illinois (KORD)

Report from: Sunday, December 4, 2022 6:51 AM CST
Current time: Saturday, June 22, 2024 5:51 AM CDT

Current weather – Weather history – Daily summaries
Weather forecast

Temperature-6.1°C (21.0°F)
Wind chill-11.9°C (10.6°F)
Dew point-12.8°C (9.0°F)
Winds 8 kts (4.1 m/s, 9.2 mph) Southwest (220°)
Visibility10 mi. (16.1 km)
Clouds Few clouds 25,000 ft. (7,620 m)
Altimeter30.24 in.Hg (1024 mB)
Relative humidity59 %
Density altitude-2,976 ft. (-907 m)
Sea-level pressure102.5 kPa (1025 mB, 30.27 in.Hg)
Remarks System requires maintenance
Automated weather observing station with precipitation discriminator
Flight conditions Visual Meteorological Conditions
Raw dataKORD 041251Z 22008KT 10SM FEW250 M06/M13 A3024 RMK AO2 SLP250 T10611128 $
An error has occurred. This application may no longer respond until reloaded. Reload 🗙